Time;durP1;ratioP1;P1;durP2;ratioP2;P2;SDS_P1;SDS_P2;PMS_P1;PMS_P2;Temp;Humidity;BMP_temperature;BMP_pressure;BME280_temperature;BME280_humidity;BME280_pressure;Samples;Min_cycle;Max_cycle;Signal;HPM_P1;HPM_P2
2021/05/30 00:01:29;;;;;;;3.40;2.42;;;;;;;20.79;52.89;100009.81;5047136;28;20821;-23
2021/05/30 00:03:55;;;;;;;6.03;2.42;;;;;;;20.56;53.46;100007.88;5047140;28;20033;-23
2021/05/30 00:06:21;;;;;;;4.13;2.30;;;;;;;20.61;53.01;99999.72;5047058;28;20043;-26
2021/05/30 00:08:46;;;;;;;3.65;2.25;;;;;;;20.74;52.41;100009.91;5045778;28;20591;-24
2021/05/30 00:11:12;;;;;;;3.05;2.00;;;;;;;20.77;51.97;99993.03;5046536;28;20032;-24
2021/05/30 00:13:38;;;;;;;2.92;2.00;;;;;;;20.97;50.81;99996.63;5046970;28;20059;-24
2021/05/30 00:16:04;;;;;;;4.75;2.45;;;;;;;20.97;50.30;99983.88;5046809;28;20029;-24
2021/05/30 00:18:30;;;;;;;4.00;2.20;;;;;;;20.89;50.37;100003.47;5046675;28;20029;-25
2021/05/30 00:20:55;;;;;;;4.45;2.45;;;;;;;20.66;51.51;100003.19;5046844;28;20087;-24
2021/05/30 00:23:21;;;;;;;3.78;2.67;;;;;;;20.45;52.25;100002.56;5046795;28;20101;-25
2021/05/30 00:25:46;;;;;;;3.03;2.20;;;;;;;20.40;52.90;100010.72;5045167;28;20033;-25
2021/05/30 00:28:12;;;;;;;4.95;2.55;;;;;;;20.76;51.82;100001.44;5046631;28;20025;-25
2021/05/30 00:30:38;;;;;;;5.28;2.53;;;;;;;20.87;51.71;100006.47;5047008;28;20028;-25
2021/05/30 00:33:03;;;;;;;2.95;2.08;;;;;;;20.71;51.03;100005.03;5046551;28;20025;-25
2021/05/30 00:35:29;;;;;;;6.43;3.40;;;;;;;20.52;52.20;99996.00;5046895;28;20032;-24
2021/05/30 00:37:54;;;;;;;4.18;2.58;;;;;;;20.73;51.97;100010.97;5046723;28;20033;-24
2021/05/30 00:40:21;;;;;;;3.53;2.20;;;;;;;20.62;52.00;100001.34;5046215;28;20143;-25
2021/05/30 00:42:48;;;;;;;5.22;2.28;;;;;;;20.51;52.50;100005.22;5046856;28;20144;-24
2021/05/30 00:45:14;;;;;;;4.63;2.80;;;;;;;20.91;51.19;100000.50;5047155;28;20036;-24
2021/05/30 00:47:40;;;;;;;3.40;2.38;;;;;;;20.97;51.19;100002.84;5050499;28;20056;-24
2021/05/30 00:50:06;;;;;;;4.00;2.50;;;;;;;20.76;51.65;100002.28;5050524;28;20029;-25
2021/05/30 00:52:32;;;;;;;5.50;2.45;;;;;;;20.54;53.41;100007.38;5050111;28;20564;-24
2021/05/30 00:54:59;;;;;;;4.28;2.38;;;;;;;20.11;54.03;100015.34;5049945;28;20036;-24
2021/05/30 00:57:24;;;;;;;3.92;2.63;;;;;;;19.86;54.86;100011.75;5048938;28;20040;-24
2021/05/30 00:59:50;;;;;;;3.92;3.10;;;;;;;20.06;54.38;100014.31;5048988;28;20114;-24
2021/05/30 01:02:15;;;;;;;3.63;2.80;;;;;;;20.11;54.43;100018.84;5049807;28;20037;-24
2021/05/30 01:04:41;;;;;;;5.05;2.88;;;;;;;20.01;55.01;100013.53;5049942;28;20041;-24
2021/05/30 01:07:06;;;;;;;5.43;2.85;;;;;;;20.10;54.51;100011.81;5050073;28;20163;-24
2021/05/30 01:09:33;;;;;;;7.05;2.70;;;;;;;20.16;54.32;100004.47;5049711;28;20115;-25
2021/05/30 01:11:58;;;;;;;3.92;2.80;;;;;;;20.14;54.52;100018.28;5049929;28;20178;-24
2021/05/30 01:14:24;;;;;;;4.78;2.60;;;;;;;20.23;53.88;100015.78;5049741;28;20115;-24
2021/05/30 01:16:50;;;;;;;5.15;2.85;;;;;;;19.72;55.46;100019.69;5050141;28;20464;-25
2021/05/30 01:19:16;;;;;;;5.50;2.58;;;;;;;19.52;56.14;100007.06;5049777;28;20505;-25
2021/05/30 01:21:45;;;;;;;4.65;2.80;;;;;;;19.89;55.16;100022.00;5049580;28;20404;-24
2021/05/30 01:24:10;;;;;;;5.20;2.90;;;;;;;19.83;56.14;100012.31;5049229;28;20094;-25
2021/05/30 01:26:37;;;;;;;5.82;2.65;;;;;;;19.91;55.67;100006.28;5049680;28;20044;-24
2021/05/30 01:29:02;;;;;;;4.35;2.60;;;;;;;19.55;56.95;100000.28;5049659;28;20033;-24
2021/05/30 01:31:28;;;;;;;6.50;3.00;;;;;;;19.23;57.88;99999.66;5049836;28;20143;-25
2021/05/30 01:33:53;;;;;;;5.28;2.85;;;;;;;19.55;56.65;100000.28;5049774;28;20029;-27
2021/05/30 01:36:19;;;;;;;3.95;2.58;;;;;;;19.55;56.58;100009.19;5049280;28;20129;-24
2021/05/30 01:38:45;;;;;;;5.25;2.55;;;;;;;19.67;56.17;99993.41;5049630;28;20028;-25
2021/05/30 01:41:10;;;;;;;3.70;2.40;;;;;;;19.44;56.82;99996.84;5049613;28;20028;-25
2021/05/30 01:43:36;;;;;;;5.18;2.78;;;;;;;19.63;55.84;99992.38;5048415;28;20032;-24
2021/05/30 01:46:01;;;;;;;4.03;2.60;;;;;;;19.57;56.25;100004.31;5049415;28;20056;-24
2021/05/30 01:48:27;;;;;;;5.22;2.70;;;;;;;19.85;55.16;100007.41;5048982;28;20021;-24
2021/05/30 01:50:52;;;;;;;4.32;2.67;;;;;;;19.93;54.84;100011.44;5048929;28;20041;-24
2021/05/30 01:53:19;;;;;;;3.83;2.67;;;;;;;19.58;55.35;99997.81;5049016;28;20037;-24
2021/05/30 01:58:22;;;;;;;;;;;;;;;19.16;56.88;100009.94;5049430;28;20565;-25
2021/05/30 02:00:49;;;;;;;5.80;3.20;;;;;;;19.38;56.13;100009.56;5049131;28;20009;-24
2021/05/30 02:03:15;;;;;;;5.85;3.08;;;;;;;19.27;56.61;100014.22;5047903;28;20041;-24
2021/05/30 02:05:41;;;;;;;5.30;3.10;;;;;;;19.00;57.25;99992.16;5048916;28;20060;-25
2021/05/30 02:08:10;;;;;;;4.35;3.35;;;;;;;19.11;57.25;100015.38;5048927;28;20028;-24
2021/05/30 02:10:36;;;;;;;7.00;3.28;;;;;;;18.90;57.25;100003.03;5049129;28;20025;-24
2021/05/30 02:13:02;;;;;;;5.25;3.45;;;;;;;19.02;57.09;100008.91;5048914;28;20713;-24
2021/05/30 02:15:28;;;;;;;6.03;3.88;;;;;;;19.28;56.53;100007.72;5048808;28;20029;-24
2021/05/30 02:17:53;;;;;;;7.72;4.13;;;;;;;19.44;55.81;100010.34;5047359;28;20031;-25
2021/05/30 02:20:40;;;;;;;6.90;4.25;;;;;;;19.32;56.33;100012.59;5048261;28;20044;-24
2021/05/30 02:23:12;;;;;;;6.70;4.00;;;;;;;18.99;56.73;100001.38;5048758;28;20017;-24
2021/05/30 02:25:38;;;;;;;7.50;3.80;;;;;;;18.35;58.63;99998.28;5048858;28;20029;-24
2021/05/30 02:28:04;;;;;;;58.10;8.00;;;;;;;18.75;57.72;100015.47;5048391;28;20062;-25
2021/05/30 02:30:30;;;;;;;8.52;3.90;;;;;;;18.97;56.67;100017.84;5047369;28;20578;-24
2021/05/30 02:32:56;;;;;;;7.50;4.53;;;;;;;19.12;56.38;100016.97;5048254;28;20029;-25
2021/05/30 02:35:22;;;;;;;6.72;4.25;;;;;;;18.96;56.57;100015.44;5048393;28;20110;-24
2021/05/30 02:37:48;;;;;;;8.18;4.53;;;;;;;19.06;56.69;100015.38;5047195;28;20041;-24
2021/05/30 02:40:13;;;;;;;7.78;4.13;;;;;;;19.06;56.77;100015.38;5048503;28;20106;-24
2021/05/30 02:42:39;;;;;;;7.10;4.28;;;;;;;18.66;57.13;99995.50;5048437;28;20025;-24
2021/05/30 02:45:05;;;;;;;6.15;4.22;;;;;;;18.91;56.71;100005.44;5048141;28;20044;-25
2021/05/30 02:47:31;;;;;;;6.78;4.60;;;;;;;18.86;55.86;100005.50;5047971;28;20596;-25
2021/05/30 02:49:56;;;;;;;7.18;4.65;;;;;;;18.51;58.02;100017.13;5048237;28;20112;-25
2021/05/30 02:52:22;;;;;;;6.25;4.05;;;;;;;18.05;60.19;100021.47;5047754;28;20072;-24
2021/05/30 02:54:48;;;;;;;8.48;4.72;;;;;;;18.30;58.99;100009.06;5048059;28;20029;-24
2021/05/30 02:57:13;;;;;;;8.98;4.55;;;;;;;18.20;59.42;100009.88;5048097;28;20505;-27
2021/05/30 02:59:39;;;;;;;6.63;4.38;;;;;;;18.34;59.22;100012.03;5048115;28;20072;-24
2021/05/30 03:02:04;;;;;;;6.63;4.47;;;;;;;18.51;58.51;100009.03;5047729;28;20531;-24
2021/05/30 03:04:30;;;;;;;5.38;4.30;;;;;;;18.53;58.23;100007.69;5046559;28;20079;-24
2021/05/30 03:06:55;;;;;;;8.38;4.70;;;;;;;18.21;58.77;100006.09;5047789;28;20029;-27
2021/05/30 03:09:21;;;;;;;7.30;4.95;;;;;;;17.93;59.45;100012.84;5047005;28;20021;-24
2021/05/30 03:11:46;;;;;;;7.47;5.43;;;;;;;17.81;60.68;100025.75;5047799;28;20029;-24
2021/05/30 03:14:12;;;;;;;9.45;5.43;;;;;;;17.72;60.57;100019.28;5047566;28;20024;-25
2021/05/30 03:16:38;;;;;;;8.25;6.20;;;;;;;16.93;62.60;99986.94;5047591;28;20032;-24
2021/05/30 03:19:03;;;;;;;7.50;5.88;;;;;;;17.01;62.70;100026.84;5047800;28;20489;-25
2021/05/30 03:21:29;;;;;;;8.65;5.78;;;;;;;16.64;64.53;100024.22;5046297;28;20040;-25
2021/05/30 03:23:54;;;;;;;7.72;5.78;;;;;;;16.54;64.78;100026.84;5047582;28;20115;-24
2021/05/30 03:26:20;;;;;;;7.40;6.22;;;;;;;16.87;63.71;100029.22;5047279;28;20751;-24
2021/05/30 03:28:45;;;;;;;7.63;5.13;;;;;;;16.36;65.83;100010.03;5047809;28;20025;-24
2021/05/30 03:31:11;;;;;;;7.82;3.97;;;;;;;16.14;66.80;100028.97;5046018;28;20032;-24
2021/05/30 03:33:36;;;;;;;6.22;3.85;;;;;;;16.30;66.00;100021.00;5047784;28;20102;-24
2021/05/30 03:36:06;;;;;;;9.00;4.53;;;;;;;16.16;66.53;100010.69;5047689;28;20140;-24
2021/05/30 03:38:32;;;;;;;6.30;4.78;;;;;;;16.91;64.26;100017.91;5046052;28;20036;-25
2021/05/30 03:41:09;;;;;;;6.47;4.40;;;;;;;16.92;64.28;100014.13;5047359;28;20036;-24
2021/05/30 03:43:35;;;;;;;7.77;4.90;;;;;;;17.26;63.32;100017.25;5047095;28;20029;-25
2021/05/30 03:46:01;;;;;;;6.72;5.35;;;;;;;17.52;62.77;100020.84;5047250;28;20166;-24
2021/05/30 03:48:26;;;;;;;6.53;4.97;;;;;;;17.40;62.48;100017.56;5045800;28;20020;-25
2021/05/30 03:50:52;;;;;;;7.13;5.10;;;;;;;17.41;62.84;100016.50;5046980;28;20053;-24
2021/05/30 03:53:18;;;;;;;6.32;5.10;;;;;;;17.10;63.89;100035.28;5047297;28;20040;-24
2021/05/30 03:55:44;;;;;;;9.75;4.88;;;;;;;16.82;64.75;100023.81;5045830;28;20039;-25
2021/05/30 03:58:10;;;;;;;9.15;4.82;;;;;;;17.22;64.36;100033.16;5045788;28;20112;-24
2021/05/30 04:00:35;;;;;;;6.35;4.65;;;;;;;17.15;64.56;100031.78;5046931;28;20397;-25
2021/05/30 04:03:01;;;;;;;6.13;4.35;;;;;;;17.43;63.63;100031.34;5047193;28;20091;-26
2021/05/30 04:05:26;;;;;;;5.90;4.32;;;;;;;17.66;62.87;100035.44;5047339;28;20033;-25
2021/05/30 04:07:52;;;;;;;8.80;4.90;;;;;;;17.30;64.54;100033.72;5045806;28;20029;-27
2021/05/30 04:10:17;;;;;;;10.07;4.72;;;;;;;17.33;64.96;100033.19;5046894;28;20037;-24
2021/05/30 04:12:43;;;;;;;8.60;5.43;;;;;;;17.79;62.73;100019.81;5047335;28;20045;-25
2021/05/30 04:15:10;;;;;;;7.70;5.03;;;;;;;18.08;62.06;100039.03;5045491;28;20031;-25
2021/05/30 04:17:36;;;;;;;7.90;5.05;;;;;;;17.81;63.41;100039.25;5047121;28;20036;-25
2021/05/30 04:20:03;;;;;;;7.05;5.30;;;;;;;17.56;64.43;100030.03;5048749;28;20033;-25
2021/05/30 04:22:29;;;;;;;6.47;5.10;;;;;;;17.51;65.50;100031.88;5050735;28;20489;-25
2021/05/30 04:24:54;;;;;;;6.80;5.45;;;;;;;17.50;65.81;100039.19;5050864;28;20053;-25
2021/05/30 04:27:20;;;;;;;6.50;5.68;;;;;;;17.49;65.65;100026.78;5049456;28;20032;-25
2021/05/30 04:29:46;;;;;;;8.27;6.20;;;;;;;17.75;64.60;100029.53;5050622;28;20060;-25
2021/05/30 04:32:11;;;;;;;8.73;6.15;;;;;;;17.96;63.80;100028.50;5050707;28;20068;-26
2021/05/30 04:34:37;;;;;;;7.40;5.22;;;;;;;18.37;59.77;100020.41;5050917;28;20041;-25
2021/05/30 04:37:02;;;;;;;10.95;5.47;;;;;;;18.54;55.90;100020.09;5049305;28;20120;-25
2021/05/30 04:39:31;;;;;;;6.88;5.05;;;;;;;18.72;55.12;100018.72;5050445;28;20712;-25
2021/05/30 04:41:57;;;;;;;6.75;4.32;;;;;;;18.89;52.63;99998.72;5050334;28;20455;-25
2021/05/30 04:44:23;;;;;;;6.03;4.95;;;;;;;19.19;52.26;100019.41;5050379;28;20108;-25
2021/05/30 04:46:48;;;;;;;9.48;4.78;;;;;;;19.61;50.73;100021.59;5050622;28;20108;-25
2021/05/30 04:49:14;;;;;;;7.30;4.88;;;;;;;19.58;50.75;100024.88;5050459;28;20113;-25
2021/05/30 04:51:40;;;;;;;6.93;4.82;;;;;;;19.67;50.71;100036.72;5049076;28;20149;-25
2021/05/30 04:54:06;;;;;;;5.78;4.78;;;;;;;19.71;49.21;100003.72;5050541;28;20078;-24
2021/05/30 04:56:31;;;;;;;7.53;5.03;;;;;;;19.79;50.31;100024.78;5050094;28;20081;-25
2021/05/30 04:58:57;;;;;;;6.20;5.10;;;;;;;19.94;50.07;100027.38;5050253;28;20114;-25
2021/05/30 05:01:22;;;;;;;6.13;4.30;;;;;;;20.02;48.83;100021.38;5050539;28;20028;-25
2021/05/30 05:03:49;;;;;;;5.55;4.38;;;;;;;20.18;49.07;100032.06;5049036;28;20037;-24
2021/05/30 05:06:14;;;;;;;5.57;4.60;;;;;;;20.19;49.15;100025.56;5049940;28;20551;-25
2021/05/30 05:08:40;;;;;;;5.30;4.53;;;;;;;20.26;49.06;100036.88;5049970;28;20025;-26
2021/05/30 05:11:08;;;;;;;7.55;4.93;;;;;;;20.45;47.89;100023.41;5049783;28;20060;-25
2021/05/30 05:13:33;;;;;;;6.43;4.93;;;;;;;20.97;46.26;100029.16;5048728;28;20067;-25
2021/05/30 05:15:59;;;;;;;5.85;4.30;;;;;;;20.70;45.40;100030.53;5049966;28;20057;-25
2021/05/30 05:18:25;;;;;;;6.38;4.40;;;;;;;20.72;45.50;100025.63;5049670;28;20056;-24
2021/05/30 05:20:51;;;;;;;7.63;4.32;;;;;;;21.05;44.88;100036.66;5049782;28;20108;-25
2021/05/30 05:23:17;;;;;;;5.50;4.25;;;;;;;21.05;45.33;100042.06;5048407;28;20174;-24
2021/05/30 05:25:43;;;;;;;6.80;5.05;;;;;;;21.21;45.40;100032.66;5049637;28;20106;-25
2021/05/30 05:28:09;;;;;;;5.88;4.10;;;;;;;21.15;44.83;100036.53;5049493;28;20127;-25
2021/05/30 05:30:35;;;;;;;7.72;4.20;;;;;;;21.39;43.84;100022.09;5048252;28;20028;-24
2021/05/30 05:33:00;;;;;;;6.68;4.65;;;;;;;21.21;44.42;100031.84;5047841;28;20029;-24
2021/05/30 05:35:27;;;;;;;6.00;4.00;;;;;;;21.55;43.97;100039.81;5049743;28;20025;-25
2021/05/30 05:37:56;;;;;;;6.95;3.90;;;;;;;21.27;42.67;100036.91;5048485;28;20040;-24
2021/05/30 05:40:22;;;;;;;4.95;4.15;;;;;;;21.17;44.79;100034.31;5047725;28;20128;-24
2021/05/30 05:42:48;;;;;;;5.90;3.72;;;;;;;21.63;42.74;100043.78;5048277;28;20544;-25
2021/05/30 05:45:14;;;;;;;5.65;4.10;;;;;;;21.43;42.30;100042.16;5049687;28;20021;-24
2021/05/30 05:47:42;;;;;;;5.63;3.70;;;;;;;21.62;41.69;100018.56;5049524;28;20037;-25
2021/05/30 05:50:11;;;;;;;5.70;3.63;;;;;;;21.57;43.04;100029.47;5049150;28;20021;-26
2021/05/30 05:52:37;;;;;;;5.80;3.53;;;;;;;21.76;43.39;100037.63;5048902;28;20136;-25
2021/05/30 05:55:04;;;;;;;7.53;3.88;;;;;;;22.02;43.47;100032.59;5048860;28;20104;-27
2021/05/30 05:57:30;;;;;;;6.77;4.40;;;;;;;21.77;43.98;100036.53;5049372;28;20033;-25
2021/05/30 05:59:56;;;;;;;5.90;3.67;;;;;;;21.76;43.20;100036.81;5047881;28;20377;-26
2021/05/30 06:02:21;;;;;;;6.55;3.78;;;;;;;21.84;42.02;100036.13;5049128;28;20028;-25
2021/05/30 06:04:47;;;;;;;5.75;4.15;;;;;;;21.61;43.83;100029.69;5049237;28;20064;-25
2021/05/30 06:07:13;;;;;;;6.30;3.50;;;;;;;21.19;41.73;100015.88;5049021;28;20413;-25
2021/05/30 06:09:38;;;;;;;8.15;3.50;;;;;;;21.67;41.46;100026.63;5049415;28;20119;-25
2021/05/30 06:12:04;;;;;;;6.50;3.30;;;;;;;21.76;42.18;100029.50;5048850;28;20032;-24
2021/05/30 06:14:30;;;;;;;6.32;3.28;;;;;;;21.03;43.29;100011.72;5047720;28;20112;-25
2021/05/30 06:16:56;;;;;;;4.68;3.58;;;;;;;21.57;43.84;100029.47;5048663;28;20190;-26
2021/05/30 06:19:22;;;;;;;5.07;3.58;;;;;;;21.87;43.15;100032.84;5048766;28;20033;-25
2021/05/30 06:21:47;;;;;;;6.20;3.80;;;;;;;21.89;43.20;100022.50;5048636;28;20558;-25
2021/05/30 06:24:13;;;;;;;5.22;3.60;;;;;;;22.00;42.49;100029.38;5047108;28;20036;-25
2021/05/30 06:26:38;;;;;;;5.40;3.63;;;;;;;22.33;39.87;100037.59;5048779;28;20029;-25
2021/05/30 06:29:04;;;;;;;7.63;4.30;;;;;;;22.55;40.63;100031.47;5047246;28;20130;-25
2021/05/30 06:31:29;;;;;;;6.18;3.90;;;;;;;22.46;41.10;100028.63;5048751;28;20033;-24
2021/05/30 06:33:55;;;;;;;9.23;5.90;;;;;;;22.04;41.11;100030.41;5048430;28;20497;-24
2021/05/30 06:36:21;;;;;;;6.40;4.10;;;;;;;22.60;40.43;100015.06;5048215;28;20405;-24
2021/05/30 06:38:46;;;;;;;7.55;3.78;;;;;;;22.74;40.15;100019.72;5048258;28;20028;-25
2021/05/30 06:41:12;;;;;;;6.45;4.00;;;;;;;22.56;41.25;100029.56;5048813;28;20037;-24
2021/05/30 06:43:37;;;;;;;5.95;3.97;;;;;;;22.61;40.64;100032.19;5047333;28;20469;-25
2021/05/30 06:46:03;;;;;;;5.60;3.90;;;;;;;21.90;41.36;100029.53;5048574;28;20033;-24
2021/05/30 06:48:29;;;;;;;6.55;3.97;;;;;;;22.30;42.20;100027.28;5046793;28;20440;-24
2021/05/30 06:51:16;;;;;;;9.40;5.43;;;;;;;22.47;41.82;100029.44;5047954;28;20428;-24
2021/05/30 06:53:40;;;;;;;6.03;4.03;;;;;;;22.27;42.03;100017.00;5048088;28;20528;-24
2021/05/30 06:56:06;;;;;;;5.32;3.75;;;;;;;22.24;41.40;100023.06;5048165;28;20033;-24
2021/05/30 06:58:31;;;;;;;6.75;3.67;;;;;;;22.64;40.07;100031.59;5047695;28;20052;-24
2021/05/30 07:00:57;;;;;;;4.85;3.35;;;;;;;23.07;40.03;100031.34;5047989;28;20025;-24
2021/05/30 07:03:23;;;;;;;6.22;3.90;;;;;;;23.26;39.43;100014.88;5047844;28;20036;-24
2021/05/30 07:05:48;;;;;;;5.78;3.20;;;;;;;23.46;38.06;100027.25;5047795;28;20412;-24
2021/05/30 07:08:14;;;;;;;5.45;4.30;;;;;;;23.59;39.37;100012.78;5046363;28;20028;-24
2021/05/30 07:10:39;;;;;;;6.82;4.43;;;;;;;23.60;38.81;100017.13;5047911;28;20037;-24
2021/05/30 07:13:05;;;;;;;6.22;3.25;;;;;;;23.38;37.36;100023.31;5047596;28;20087;-24
2021/05/30 07:15:30;;;;;;;5.60;3.15;;;;;;;23.16;39.51;100024.06;5048384;28;20036;-24
2021/05/30 07:17:56;;;;;;;6.97;3.47;;;;;;;23.47;39.55;100016.03;5048086;28;20037;-24
2021/05/30 07:20:21;;;;;;;4.25;3.13;;;;;;;23.35;36.72;99996.72;5047240;28;20086;-24
2021/05/30 07:22:47;;;;;;;4.75;3.22;;;;;;;23.48;37.74;100025.03;5047973;28;20148;-24
2021/05/30 07:25:13;;;;;;;4.20;3.05;;;;;;;23.04;39.01;100007.44;5047944;28;20037;-24
2021/05/30 07:27:39;;;;;;;5.93;3.10;;;;;;;23.40;39.49;100009.44;5047545;28;20056;-24
2021/05/30 07:30:06;;;;;;;4.45;2.90;;;;;;;23.38;38.00;100022.53;5047655;28;20033;-24
2021/05/30 07:32:31;;;;;;;5.45;3.60;;;;;;;24.12;37.51;100018.66;5047329;28;20087;-24
2021/05/30 07:34:57;;;;;;;5.75;2.72;;;;;;;24.53;34.44;100023.09;5047363;28;20021;-24
2021/05/30 07:37:22;;;;;;;5.75;3.05;;;;;;;24.12;36.37;100015.94;5047582;28;20116;-24
2021/05/30 07:39:48;;;;;;;7.10;3.05;;;;;;;23.73;39.94;100017.38;5047847;28;20079;-24
2021/05/30 07:42:13;;;;;;;5.35;2.97;;;;;;;23.99;37.44;100012.19;5048790;28;20033;-24
2021/05/30 07:44:39;;;;;;;4.93;3.28;;;;;;;24.32;37.05;100022.81;5051053;28;20492;-24
2021/05/30 07:47:05;;;;;;;3.60;3.08;;;;;;;24.24;36.06;100016.19;5048151;28;20417;-24
2021/05/30 07:49:31;;;;;;;4.90;2.95;;;;;;;24.47;35.94;100020.47;5045760;28;20183;-24
2021/05/30 07:51:57;;;;;;;5.10;2.90;;;;;;;23.54;37.59;100014.81;5047243;28;20055;-24
2021/05/30 07:54:24;;;;;;;17.73;3.90;;;;;;;23.57;37.60;99993.22;5046777;28;20036;-24
2021/05/30 07:56:50;;;;;;;4.82;3.13;;;;;;;24.30;37.87;100009.47;5045821;28;20037;-24
2021/05/30 07:59:16;;;;;;;5.65;3.25;;;;;;;24.59;37.62;99995.38;5047364;28;20121;-24
2021/05/30 08:01:41;;;;;;;15.05;4.03;;;;;;;24.77;35.97;100006.34;5047275;28;20043;-24
2021/05/30 08:04:07;;;;;;;4.75;3.03;;;;;;;25.04;37.20;100005.31;5047005;28;20055;-24
2021/05/30 08:06:32;;;;;;;5.90;3.35;;;;;;;25.29;34.99;100000.25;5047524;28;20045;-24
2021/05/30 08:08:58;;;;;;;7.07;3.22;;;;;;;25.20;36.01;99987.38;5047130;28;20098;-24
2021/05/30 08:11:25;;;;;;;5.43;3.30;;;;;;;25.18;36.28;99984.16;5047053;28;20179;-24
2021/05/30 08:13:51;;;;;;;3.60;2.90;;;;;;;25.27;34.51;99981.47;5046886;28;20099;-24
2021/05/30 08:16:17;;;;;;;8.35;3.53;;;;;;;24.77;33.67;99996.25;5046790;28;20037;-24
2021/05/30 08:18:42;;;;;;;5.80;2.97;;;;;;;24.61;35.36;99997.78;5047104;28;20515;-24
2021/05/30 08:21:08;;;;;;;3.75;2.97;;;;;;;24.25;35.46;99998.69;5046965;28;20177;-24
2021/05/30 08:23:34;;;;;;;4.93;3.25;;;;;;;24.30;36.38;99987.69;5045780;28;20082;-24
2021/05/30 08:26:00;;;;;;;7.13;3.50;;;;;;;24.23;36.21;99992.75;5047136;28;20439;-24
2021/05/30 08:28:26;;;;;;;3.92;2.78;;;;;;;23.86;37.18;99994.75;5046400;28;20061;-24
2021/05/30 08:30:51;;;;;;;5.55;3.05;;;;;;;24.43;36.89;99989.50;5045669;28;20493;-24
2021/05/30 08:33:17;;;;;;;3.35;2.58;;;;;;;24.31;36.10;99983.81;5046913;28;20058;-24
2021/05/30 08:35:42;;;;;;;4.57;2.47;;;;;;;24.50;34.29;99993.72;5046870;28;20035;-24
2021/05/30 08:38:08;;;;;;;5.43;2.85;;;;;;;24.65;34.62;99982.41;5046840;28;20113;-24
2021/05/30 08:40:33;;;;;;;5.45;2.67;;;;;;;24.67;32.66;99985.63;5046749;28;20067;-24
2021/05/30 08:42:59;;;;;;;4.80;3.25;;;;;;;25.09;34.44;99993.44;5046908;28;20040;-24
2021/05/30 08:45:24;;;;;;;10.65;5.38;;;;;;;25.02;33.38;99981.06;5046615;28;20551;-25
2021/05/30 08:47:50;;;;;;;4.78;3.28;;;;;;;25.09;33.69;99982.53;5046779;28;20781;-24
2021/05/30 08:50:16;;;;;;;4.60;2.88;;;;;;;24.88;34.11;99985.06;5046502;28;20067;-24
2021/05/30 08:52:41;;;;;;;3.95;2.47;;;;;;;25.09;33.22;99986.06;5046202;28;20526;-24
2021/05/30 08:55:08;;;;;;;4.53;2.95;;;;;;;25.30;32.95;99989.03;5046630;28;20032;-24
2021/05/30 08:57:33;;;;;;;4.45;2.67;;;;;;;25.94;31.17;99993.06;5046443;28;20037;-24
2021/05/30 08:59:59;;;;;;;4.28;2.70;;;;;;;24.65;33.23;99980.47;5046455;28;20078;-24
2021/05/30 09:02:24;;;;;;;5.25;2.25;;;;;;;25.23;34.36;99970.41;5046185;28;20048;-24
2021/05/30 09:05:03;;;;;;;5.53;2.40;;;;;;;25.67;32.83;99976.66;5046946;28;20477;-24
2021/05/30 09:07:47;;;;;;;4.35;2.72;;;;;;;25.63;31.96;99961.25;5048830;28;20071;-24
2021/05/30 09:10:18;;;;;;;3.97;2.85;;;;;;;25.89;32.12;99974.88;5048609;28;20167;-24
2021/05/30 09:12:43;;;;;;;3.88;2.40;;;;;;;26.28;33.85;99974.97;5049824;28;20071;-24
2021/05/30 09:15:24;;;;;;;4.72;2.30;;;;;;;25.88;31.26;99977.94;5050001;28;20107;-25
2021/05/30 09:18:16;;;;;;;5.70;2.20;;;;;;;25.78;30.46;99968.13;5050085;28;20067;-24
2021/05/30 09:21:00;;;;;;;5.70;3.15;;;;;;;26.12;33.86;99955.56;5049856;28;20024;-24
2021/05/30 09:23:37;;;;;;;4.55;2.67;;;;;;;26.50;31.01;99982.13;5044131;28;20076;-24
2021/05/30 09:26:06;;;;;;;;;;;;;;;26.91;29.54;99969.72;5040080;28;20132;-24
2021/05/30 09:28:31;;;;;;;5.03;2.50;;;;;;;26.82;29.44;99962.34;5029517;28;19990;-24
2021/05/30 09:31:00;;;;;;;7.85;4.40;;;;;;;26.48;31.79;99976.16;5029564;28;20029;-24
2021/05/30 09:33:29;;;;;;;8.82;4.80;;;;;;;26.27;31.76;99963.22;5027428;28;20104;-24
2021/05/30 09:35:57;;;;;;;4.97;2.78;;;;;;;26.50;31.86;99972.00;5027405;28;20417;-24
2021/05/30 09:38:32;;;;;;;4.53;2.65;;;;;;;26.77;31.27;99953.56;5030076;28;20029;-25
2021/05/30 09:40:59;;;;;;;3.70;2.50;;;;;;;26.53;31.03;99943.19;5037625;28;20036;-24
2021/05/30 09:43:25;;;;;;;;;;;;;;;26.57;34.29;99946.88;5047071;28;20029;-24
2021/05/30 09:46:03;;;;;;;5.82;2.75;;;;;;;26.75;34.35;99955.81;5029360;28;19996;-24
2021/05/30 09:48:28;;;;;;;6.22;3.15;;;;;;;27.21;34.00;99957.59;5032171;28;20036;-26
2021/05/30 09:51:05;;;;;;;6.45;2.70;;;;;;;26.91;32.31;99958.78;5049489;28;20094;-24
2021/05/30 09:53:43;;;;;;;6.60;2.83;;;;;;;26.65;32.96;99957.78;5049240;28;20036;-24
2021/05/30 09:56:47;;;;;;;7.05;2.70;;;;;;;26.68;34.09;99961.78;5049411;28;20760;-26
2021/05/30 09:59:14;;;;;;;7.25;3.13;;;;;;;26.93;34.80;99962.81;5042890;28;20493;-24
2021/05/30 10:01:59;;;;;;;23.40;13.10;;;;;;;27.18;34.62;99941.84;5034798;28;20040;-24
2021/05/30 10:04:32;;;;;;;5.40;3.13;;;;;;;27.31;33.77;99948.22;5048991;28;20066;-24
2021/05/30 10:07:01;;;;;;;8.57;4.53;;;;;;;27.78;33.95;99955.38;5048840;28;20029;-24
2021/05/30 10:09:27;;;;;;;4.65;3.22;;;;;;;27.18;34.19;99952.00;5035592;28;20152;-24
2021/05/30 10:11:53;;;;;;;7.18;3.47;;;;;;;27.05;34.69;99953.84;5029048;28;20540;-24
2021/05/30 10:14:19;;;;;;;4.32;3.03;;;;;;;26.95;33.16;99948.75;5027668;28;20036;-27
2021/05/30 10:16:44;;;;;;;5.10;3.28;;;;;;;27.20;33.64;99953.28;5029106;28;20437;-24
2021/05/30 10:19:17;;;;;;;4.03;2.90;;;;;;;27.11;30.93;99952.53;5039094;28;20029;-24
2021/05/30 10:21:57;;;;;;;9.10;4.55;;;;;;;27.39;33.18;99952.03;5047392;28;20110;-24
2021/05/30 10:24:23;;;;;;;5.22;3.50;;;;;;;26.82;35.63;99943.22;5047144;28;20087;-24
2021/05/30 10:27:15;;;;;;;6.30;4.05;;;;;;;27.54;34.75;99959.63;5046928;28;20087;-24
2021/05/30 10:29:40;;;;;;;4.15;3.30;;;;;;;26.94;34.63;99958.13;5048066;28;20029;-24
2021/05/30 10:32:16;;;;;;;7.00;3.85;;;;;;;26.93;37.73;99960.06;5037029;28;20029;-24
2021/05/30 10:35:29;;;;;;;4.22;2.80;;;;;;;26.31;34.79;99964.19;5038134;28;20109;-24
2021/05/30 10:37:55;;;;;;;8.27;4.38;;;;;;;26.53;35.29;99960.41;5025858;28;20504;-24
2021/05/30 10:40:21;;;;;;;8.48;3.80;;;;;;;26.60;36.54;99970.84;5025797;28;20033;-24
2021/05/30 10:43:26;;;;;;;4.95;2.78;;;;;;;26.08;32.89;99960.09;5027042;28;20072;-24
2021/05/30 10:45:51;;;;;;;8.32;3.80;;;;;;;25.67;35.92;99957.53;5025997;28;20095;-24
2021/05/30 10:48:18;;;;;;;13.40;4.25;;;;;;;25.74;34.47;99969.91;5025435;28;20033;-24
2021/05/30 10:53:34;;;;;;;;;;;;;;;26.21;34.99;99979.00;5037218;28;20109;-24
2021/05/30 10:56:18;;;;;;;46.92;11.23;;;;;;;25.76;36.91;99973.13;5048285;28;20434;-25
2021/05/30 10:58:44;;;;;;;5.65;3.70;;;;;;;25.02;33.67;99947.53;5047993;28;20500;-24
2021/05/30 11:01:34;;;;;;;3.63;2.72;;;;;;;24.75;34.70;99968.50;5031064;28;20030;-24
2021/05/30 11:04:21;;;;;;;6.70;2.58;;;;;;;24.34;32.14;99964.13;5028367;28;20029;-24
2021/05/30 11:06:49;;;;;;;4.35;2.10;;;;;;;24.09;35.32;99962.06;5028130;28;20033;-24
2021/05/30 11:09:14;;;;;;;3.55;2.55;;;;;;;24.20;35.10;99966.16;5026731;28;20034;-24
2021/05/30 11:11:40;;;;;;;3.97;2.63;;;;;;;23.77;36.89;99953.06;5027702;28;20037;-24
2021/05/30 11:14:15;;;;;;;3.83;2.65;;;;;;;23.65;38.09;99964.47;5026476;28;20104;-24
2021/05/30 11:16:44;;;;;;;4.95;3.13;;;;;;;23.42;37.48;99963.66;5028069;28;20063;-25
2021/05/30 11:19:14;;;;;;;6.80;2.95;;;;;;;23.57;39.62;99960.56;5027611;28;20029;-24
2021/05/30 11:21:47;;;;;;;5.65;2.90;;;;;;;23.36;39.29;99951.28;5027659;28;20022;-24
2021/05/30 11:24:20;;;;;;;2.97;2.67;;;;;;;23.38;40.09;99965.38;5027446;28;20041;-24
2021/05/30 11:26:56;;;;;;;4.55;3.03;;;;;;;23.36;41.06;99970.34;5027887;28;20018;-23
2021/05/30 11:29:22;;;;;;;4.22;3.30;;;;;;;23.15;42.88;99965.34;5026947;28;20034;-24
2021/05/30 11:31:47;;;;;;;7.28;3.20;;;;;;;22.98;43.61;99948.81;5027514;28;20121;-24
2021/05/30 11:34:13;;;;;;;4.45;3.17;;;;;;;23.08;42.36;99966.84;5027500;28;20045;-24
2021/05/30 11:36:39;;;;;;;5.40;4.40;;;;;;;22.75;43.33;99956.88;5027701;28;20087;-24